createdAt,value
2022-08-22T00:02:09.101Z,50.98
2022-08-22T00:03:02.493Z,58.96
2022-08-22T00:03:08.825Z,52.21
2022-08-22T00:04:41.476Z,51.06
2022-08-22T00:07:12.031Z,50.71
2022-08-22T00:09:42.629Z,51.01
2022-08-22T00:12:18.399Z,51.85
2022-08-22T00:14:48.719Z,50.86
2022-08-22T00:17:24.566Z,50.82
2022-08-22T00:19:54.688Z,51.02
2022-08-22T00:22:24.352Z,51.26
2022-08-22T00:24:53.742Z,51.09
2022-08-22T00:27:22.401Z,51.10
2022-08-22T00:29:53.700Z,50.63
2022-08-22T00:32:25.002Z,50.71
2022-08-22T00:34:55.076Z,50.95
2022-08-22T00:37:24.483Z,50.95
2022-08-22T00:39:53.802Z,50.61
2022-08-22T00:42:32.109Z,50.95
2022-08-22T00:45:37.301Z,50.76
2022-08-22T00:48:24.612Z,50.91
2022-08-22T00:51:03.072Z,51.07
2022-08-22T00:53:50.225Z,51.74
2022-08-22T00:56:27.273Z,50.49
2022-08-22T00:59:11.996Z,50.82
2022-08-22T01:01:53.198Z,50.49
2022-08-22T01:04:35.516Z,51.00
2022-08-22T01:07:11.015Z,50.67
2022-08-22T01:09:44.027Z,50.54
2022-08-22T01:12:20.685Z,50.73
2022-08-22T01:14:50.476Z,50.43
2022-08-22T01:17:36.237Z,50.31
2022-08-22T01:20:50.835Z,51.00
2022-08-22T01:23:43.985Z,50.54
2022-08-22T01:26:42.696Z,50.28
2022-08-22T01:29:28.266Z,50.23
2022-08-22T01:32:30.587Z,50.43
2022-08-22T01:35:06.629Z,50.16
2022-08-22T01:38:00.330Z,50.11
2022-08-22T01:40:54.006Z,50.44
2022-08-22T01:43:59.172Z,49.96
2022-08-22T01:46:27.222Z,50.06
2022-08-22T01:48:56.771Z,50.12
2022-08-22T01:51:26.913Z,50.47
2022-08-22T01:54:03.751Z,50.24
2022-08-22T01:56:33.409Z,50.09
2022-08-22T01:59:03.463Z,49.84
2022-08-22T02:01:37.910Z,50.12
2022-08-22T02:04:20.016Z,50.20
2022-08-22T02:06:52.450Z,50.13
2022-08-22T02:09:27.580Z,50.06
2022-08-22T02:11:56.707Z,50.36
2022-08-22T02:14:33.472Z,49.80
2022-08-22T02:17:14.841Z,50.23
2022-08-22T02:19:48.358Z,49.70
2022-08-22T02:22:26.560Z,50.09
2022-08-22T02:25:00.138Z,50.34
2022-08-22T02:27:34.298Z,49.79
2022-08-22T02:30:04.853Z,49.68
2022-08-22T02:32:36.381Z,50.32
2022-08-22T02:35:07.579Z,49.99
2022-08-22T02:37:39.489Z,49.77
2022-08-22T02:40:11.657Z,49.73
2022-08-22T02:42:41.285Z,49.67
2022-08-22T02:45:16.784Z,49.38
2022-08-22T02:47:48.137Z,49.77
2022-08-22T02:50:18.671Z,50.37
2022-08-22T02:52:57.292Z,49.30
2022-08-22T02:55:33.234Z,49.76
2022-08-22T02:58:04.044Z,49.44
2022-08-22T03:00:43.917Z,49.56
2022-08-22T03:03:17.766Z,49.72
2022-08-22T03:05:52.227Z,49.45
2022-08-22T03:08:24.707Z,49.55
2022-08-22T03:10:58.067Z,49.28
2022-08-22T03:13:26.770Z,49.55
2022-08-22T03:15:55.974Z,49.53
2022-08-22T03:18:26.036Z,49.63
2022-08-22T03:20:55.449Z,49.64
2022-08-22T03:23:32.666Z,49.60
2022-08-22T03:26:07.432Z,49.72
2022-08-22T03:28:37.265Z,49.50
2022-08-22T03:31:12.579Z,49.63
2022-08-22T03:33:40.024Z,49.60
2022-08-22T03:36:11.149Z,49.46
2022-08-22T03:38:46.597Z,49.74
2022-08-22T03:41:53.189Z,49.71
2022-08-22T03:44:45.034Z,49.89
2022-08-22T03:47:23.030Z,49.56
2022-08-22T03:50:14.738Z,49.62
2022-08-22T03:53:15.426Z,49.22
2022-08-22T03:56:09.796Z,49.45
2022-08-22T03:58:59.933Z,49.76
2022-08-22T04:01:40.117Z,49.29
2022-08-22T04:04:39.376Z,49.36
2022-08-22T04:07:42.727Z,49.16
2022-08-22T04:10:20.880Z,49.37
2022-08-22T04:12:56.788Z,49.34
2022-08-22T04:15:47.291Z,49.43
2022-08-22T04:18:49.993Z,49.18
2022-08-22T04:22:08.448Z,49.38
2022-08-22T04:24:52.249Z,49.44
2022-08-22T04:27:23.259Z,49.36
2022-08-22T04:29:58.540Z,49.43
2022-08-22T04:32:27.910Z,49.36
2022-08-22T04:34:57.250Z,49.32
2022-08-22T04:37:29.771Z,49.86
2022-08-22T04:39:58.662Z,49.52
2022-08-22T04:42:32.601Z,49.66
2022-08-22T04:45:05.002Z,49.26
2022-08-22T04:47:34.665Z,49.14
2022-08-22T04:50:04.739Z,49.61
2022-08-22T04:52:37.510Z,49.63
2022-08-22T04:55:09.183Z,49.83
2022-08-22T04:57:41.906Z,49.88
2022-08-22T05:00:12.082Z,49.56
2022-08-22T05:02:41.008Z,49.38
2022-08-22T05:05:13.676Z,49.45
2022-08-22T05:07:43.548Z,49.67
2022-08-22T05:10:13.622Z,49.78
2022-08-22T05:12:42.543Z,49.65
2022-08-22T05:15:16.031Z,49.82
2022-08-22T05:17:52.007Z,49.93
2022-08-22T05:20:21.943Z,49.97
2022-08-22T05:22:51.145Z,49.88
2022-08-22T05:25:20.775Z,49.82
2022-08-22T05:27:49.860Z,50.01
2022-08-22T05:30:23.815Z,50.07
2022-08-22T05:32:52.577Z,50.04
2022-08-22T05:35:21.259Z,50.12
2022-08-22T05:37:49.711Z,50.17
2022-08-22T05:40:19.679Z,50.42
2022-08-22T05:42:47.168Z,50.43
2022-08-22T05:45:14.631Z,50.37
2022-08-22T05:47:43.957Z,50.26
2022-08-22T05:50:13.355Z,50.69
2022-08-22T05:52:45.837Z,50.40
2022-08-22T05:55:21.048Z,50.83
2022-08-22T05:57:49.654Z,51.07
2022-08-22T06:00:20.368Z,50.77
2022-08-22T06:02:55.297Z,51.05
2022-08-22T06:05:25.682Z,50.90
2022-08-22T06:07:54.209Z,50.84
2022-08-22T06:10:23.625Z,51.08
2022-08-22T06:12:57.540Z,51.13
2022-08-22T06:15:29.763Z,51.13
2022-08-22T06:18:00.914Z,50.83
2022-08-22T06:20:31.048Z,51.08
2022-08-22T06:23:01.962Z,50.73
2022-08-22T06:25:31.076Z,50.80
2022-08-22T06:27:58.626Z,51.04
2022-08-22T06:30:27.437Z,51.06
2022-08-22T06:33:00.191Z,51.15
2022-08-22T06:35:51.168Z,51.13
2022-08-22T06:38:19.854Z,50.98
2022-08-22T06:40:47.425Z,51.04
2022-08-22T06:43:15.368Z,51.20
2022-08-22T06:45:42.811Z,51.26
2022-08-22T06:48:15.413Z,51.32
2022-08-22T06:50:44.702Z,51.31
2022-08-22T06:53:13.560Z,51.28
2022-08-22T06:55:42.952Z,51.47
2022-08-22T06:58:13.785Z,51.48
2022-08-22T07:00:42.112Z,51.50
2022-08-22T07:03:12.181Z,51.50
2022-08-22T07:05:41.301Z,51.45
2022-08-22T07:08:12.031Z,51.48
2022-08-22T07:10:41.513Z,51.49
2022-08-22T07:13:14.020Z,51.73
2022-08-22T07:15:42.207Z,51.74
2022-08-22T07:18:16.365Z,51.55
2022-08-22T07:20:45.586Z,51.63
2022-08-22T07:23:24.175Z,51.65
2022-08-22T07:25:54.095Z,51.92
2022-08-22T07:28:37.134Z,51.76
2022-08-22T07:31:18.589Z,51.87
2022-08-22T07:33:50.750Z,52.03
2022-08-22T07:36:25.712Z,51.80
2022-08-22T07:39:04.526Z,51.86
2022-08-22T07:41:35.563Z,52.23
2022-08-22T07:44:07.328Z,52.06
2022-08-22T07:46:36.606Z,52.20
2022-08-22T07:49:09.600Z,51.89
2022-08-22T07:51:43.627Z,52.20
2022-08-22T07:54:13.640Z,52.18
2022-08-22T07:56:43.174Z,52.16
2022-08-22T07:59:12.998Z,51.94
2022-08-22T08:01:45.211Z,52.10
2022-08-22T08:04:13.991Z,52.14
2022-08-22T08:06:41.457Z,51.99
2022-08-22T08:09:09.811Z,52.16
2022-08-22T08:11:40.872Z,52.20
2022-08-22T08:14:08.580Z,52.17
2022-08-22T08:16:43.613Z,52.33
2022-08-22T08:19:11.360Z,52.16
2022-08-22T08:21:39.748Z,52.24
2022-08-22T08:24:08.268Z,52.15
2022-08-22T08:26:59.975Z,52.03
2022-08-22T08:29:27.007Z,52.09
2022-08-22T08:31:54.468Z,52.07
2022-08-22T08:34:23.393Z,52.15
2022-08-22T08:36:52.199Z,51.90
2022-08-22T08:39:22.902Z,52.08
2022-08-22T08:42:17.020Z,51.84
2022-08-22T08:45:16.805Z,51.86
2022-08-22T08:50:51.321Z,51.71
2022-08-22T08:53:41.197Z,51.97
2022-08-22T08:56:19.633Z,51.87
2022-08-22T08:58:51.069Z,51.47
2022-08-22T09:01:27.586Z,51.49
2022-08-22T09:04:27.129Z,51.33
2022-08-22T09:07:06.482Z,51.51
2022-08-22T09:09:44.471Z,51.25
2022-08-22T09:12:32.327Z,51.12
2022-08-22T09:15:38.248Z,51.21
2022-08-22T09:18:26.909Z,51.42
2022-08-22T09:21:11.242Z,51.11
2022-08-22T09:24:05.178Z,50.69
2022-08-22T09:26:38.573Z,50.67
2022-08-22T09:29:11.592Z,50.67
2022-08-22T09:31:48.339Z,50.75
2022-08-22T09:34:24.172Z,51.00
2022-08-22T09:37:04.409Z,50.75
2022-08-22T09:39:34.625Z,50.68
2022-08-22T09:40:16.136Z,51.78
2022-08-22T09:42:06.797Z,50.68
2022-08-22T09:44:39.955Z,50.37
2022-08-22T09:47:13.803Z,50.25
2022-08-22T09:49:48.990Z,50.41
2022-08-22T09:52:33.849Z,50.36
2022-08-22T09:55:08.625Z,50.22
2022-08-22T09:57:38.274Z,50.40
2022-08-22T10:00:30.837Z,50.33
2022-08-22T10:03:05.404Z,50.41
2022-08-22T10:05:43.992Z,50.57
2022-08-22T10:08:15.214Z,50.22
2022-08-22T10:11:01.966Z,50.45
2022-08-22T10:13:37.235Z,50.21
2022-08-22T10:16:21.379Z,50.33
2022-08-22T10:18:55.448Z,50.12
2022-08-22T10:21:32.204Z,50.08
2022-08-22T10:24:02.611Z,49.67
2022-08-22T10:26:38.749Z,49.87
2022-08-22T10:29:09.967Z,49.23
2022-08-22T10:31:41.148Z,49.28
2022-08-22T10:34:28.509Z,49.37
2022-08-22T10:37:00.592Z,49.28
2022-08-22T10:39:32.531Z,49.15
2022-08-22T10:42:07.589Z,48.88
2022-08-22T10:44:39.864Z,49.00
2022-08-22T10:47:10.065Z,48.93
2022-08-22T10:49:41.200Z,48.43
2022-08-22T10:52:16.469Z,48.34
2022-08-22T10:54:48.640Z,48.73
2022-08-22T10:57:22.539Z,47.42
2022-08-22T10:59:53.291Z,48.02
2022-08-22T11:02:30.396Z,48.09
2022-08-22T11:05:13.801Z,47.63
2022-08-22T11:07:50.024Z,47.99
2022-08-22T11:10:24.667Z,47.44
2022-08-22T11:12:58.997Z,47.64
2022-08-22T11:15:45.503Z,47.58
2022-08-22T11:18:18.633Z,47.87
2022-08-22T11:20:53.804Z,47.79
2022-08-22T11:23:26.829Z,47.21
2022-08-22T11:25:57.224Z,47.63
2022-08-22T11:28:39.788Z,47.38
2022-08-22T11:31:11.509Z,47.54
2022-08-22T11:33:47.160Z,47.89
2022-08-22T11:36:27.392Z,47.64
2022-08-22T11:39:01.468Z,47.61
2022-08-22T11:41:31.331Z,47.55
2022-08-22T11:44:01.325Z,48.13
2022-08-22T11:46:32.337Z,47.72
2022-08-22T11:49:32.625Z,48.45
2022-08-22T11:52:18.624Z,48.60
2022-08-22T11:55:01.105Z,48.57
2022-08-22T11:57:32.062Z,48.43
2022-08-22T12:00:05.910Z,48.60
2022-08-22T12:02:39.183Z,48.49
2022-08-22T12:05:11.748Z,48.18
2022-08-22T12:07:53.339Z,48.12
2022-08-22T12:10:21.457Z,48.00
2022-08-22T12:12:56.004Z,48.08
2022-08-22T12:15:25.203Z,47.71
2022-08-22T12:18:31.395Z,47.92
2022-08-22T12:21:16.437Z,48.55
2022-08-22T12:24:11.196Z,48.24
2022-08-22T12:26:53.793Z,48.59
2022-08-22T12:29:33.994Z,48.46
2022-08-22T12:32:38.569Z,48.78
2022-08-22T12:35:18.497Z,48.73
2022-08-22T12:37:52.787Z,48.72
2022-08-22T12:40:27.188Z,48.41
2022-08-22T12:43:03.591Z,48.19
2022-08-22T12:45:46.009Z,47.93
2022-08-22T12:48:23.837Z,48.01
2022-08-22T12:50:52.765Z,47.95
2022-08-22T12:53:44.456Z,47.64
2022-08-22T12:56:18.625Z,47.77
2022-08-22T12:58:58.432Z,47.57
2022-08-22T13:01:34.096Z,47.78
2022-08-22T13:04:03.477Z,47.35
2022-08-22T13:06:57.782Z,46.64
2022-08-22T13:09:30.633Z,47.01
2022-08-22T13:12:04.280Z,47.17
2022-08-22T13:14:31.949Z,47.00
2022-08-22T13:17:01.322Z,47.13
2022-08-22T13:19:55.520Z,47.45
2022-08-22T13:22:27.213Z,46.46
2022-08-22T13:24:59.094Z,46.69
2022-08-22T13:27:35.615Z,46.41
2022-08-22T13:30:04.888Z,46.10
2022-08-22T13:32:34.683Z,46.13
2022-08-22T13:35:02.644Z,46.17
2022-08-22T13:37:32.614Z,45.56
2022-08-22T13:40:02.137Z,45.52
2022-08-22T13:42:31.541Z,45.79
2022-08-22T13:45:02.426Z,45.92
2022-08-22T13:47:32.297Z,45.58
2022-08-22T13:50:07.376Z,46.11
2022-08-22T13:52:38.219Z,46.25
2022-08-22T13:55:12.195Z,46.25
2022-08-22T13:57:42.719Z,46.27
2022-08-22T14:00:32.804Z,46.23
2022-08-22T14:03:05.722Z,46.44
2022-08-22T14:05:39.437Z,46.26
2022-08-22T14:08:13.001Z,46.49
2022-08-22T14:10:42.526Z,46.57
2022-08-22T14:13:41.641Z,46.65
2022-08-22T14:16:10.883Z,46.49
2022-08-22T14:18:48.952Z,46.97
2022-08-22T14:21:20.132Z,46.76
2022-08-22T14:23:48.401Z,46.42
2022-08-22T14:26:32.808Z,47.01
2022-08-22T14:29:02.409Z,47.04
2022-08-22T14:31:29.909Z,47.14
2022-08-22T14:34:00.802Z,46.69
2022-08-22T14:36:30.974Z,46.86
2022-08-22T14:39:01.039Z,46.89
2022-08-22T14:41:52.537Z,47.04
2022-08-22T14:44:19.879Z,47.29
2022-08-22T14:46:52.221Z,47.21
2022-08-22T14:49:29.477Z,47.16
2022-08-22T14:52:00.998Z,46.94
2022-08-22T14:54:29.349Z,47.37
2022-08-22T14:56:56.812Z,47.43
2022-08-22T14:59:33.285Z,47.44
2022-08-22T15:02:02.783Z,46.92
2022-08-22T15:04:35.079Z,47.27
2022-08-22T15:07:02.981Z,47.24
2022-08-22T15:09:32.955Z,47.19
2022-08-22T15:12:01.694Z,47.37
2022-08-22T15:14:44.862Z,47.23
2022-08-22T15:17:40.085Z,47.25
2022-08-22T15:20:27.655Z,47.52
2022-08-22T15:22:55.858Z,47.25
2022-08-22T15:25:24.679Z,47.05
2022-08-22T15:27:54.843Z,47.22
2022-08-22T15:30:34.186Z,47.00
2022-08-22T15:33:09.371Z,46.86
2022-08-22T15:35:39.216Z,46.75
2022-08-22T15:38:08.144Z,46.83
2022-08-22T15:40:40.895Z,46.63
2022-08-22T15:43:13.388Z,46.51
2022-08-22T15:45:42.407Z,47.01
2022-08-22T15:48:13.372Z,46.47
2022-08-22T15:50:58.193Z,46.88
2022-08-22T15:53:26.896Z,46.58
2022-08-22T15:56:22.810Z,46.26
2022-08-22T15:58:53.108Z,46.40
2022-08-22T16:01:22.343Z,46.47
2022-08-22T16:03:54.426Z,46.83
2022-08-22T16:06:45.038Z,46.88
2022-08-22T16:09:32.639Z,46.45
2022-08-22T16:12:00.117Z,46.79
2022-08-22T16:14:46.271Z,47.09
2022-08-22T16:17:44.879Z,46.98
2022-08-22T16:20:49.894Z,47.18
2022-08-22T16:23:18.636Z,46.51
2022-08-22T16:26:07.135Z,46.58
2022-08-22T16:28:57.401Z,46.74
2022-08-22T16:31:27.734Z,46.83
2022-08-22T16:33:55.651Z,46.58
2022-08-22T16:36:41.648Z,46.70
2022-08-22T16:39:13.486Z,47.04
2022-08-22T16:41:42.328Z,47.16
2022-08-22T16:44:40.002Z,47.14
2022-08-22T16:47:09.650Z,47.21
2022-08-22T16:49:40.053Z,47.30
2022-08-22T16:52:55.136Z,47.24
2022-08-22T16:55:58.945Z,47.21
2022-08-22T16:58:56.186Z,46.71
2022-08-22T17:01:31.111Z,46.96
2022-08-22T17:04:00.780Z,47.37
2022-08-22T17:06:36.804Z,47.55
2022-08-22T17:09:16.277Z,46.98
2022-08-22T17:11:47.774Z,47.57
2022-08-22T17:14:23.615Z,47.24
2022-08-22T17:16:58.348Z,47.42
2022-08-22T17:19:32.354Z,47.46
2022-08-22T17:22:01.246Z,47.48
2022-08-22T17:24:34.191Z,47.54
2022-08-22T17:27:08.731Z,47.63
2022-08-22T17:29:53.624Z,47.76
2022-08-22T17:32:24.229Z,47.43
2022-08-22T17:34:57.030Z,47.76
2022-08-22T17:37:32.197Z,47.50
2022-08-22T17:40:22.527Z,47.83
2022-08-22T17:43:00.581Z,47.34
2022-08-22T17:45:34.369Z,47.49
2022-08-22T17:48:05.274Z,47.25
2022-08-22T17:50:35.412Z,47.36
2022-08-22T17:53:04.302Z,47.23
2022-08-22T17:55:33.703Z,47.37
2022-08-22T17:58:03.866Z,47.56
2022-08-22T18:00:34.332Z,47.58
2022-08-22T18:03:06.690Z,47.30
2022-08-22T18:05:37.377Z,47.30
2022-08-22T18:08:37.548Z,47.21
2022-08-22T18:10:59.948Z,47.33
2022-08-22T18:13:35.069Z,47.53
2022-08-22T18:29:28.698Z,47.38
2022-08-22T18:37:51.091Z,48.00
2022-08-22T18:41:33.386Z,47.47
2022-08-22T19:21:42.817Z,48.71
2022-08-22T19:24:13.231Z,48.93
2022-08-22T19:26:43.374Z,48.54
2022-08-22T19:29:48.306Z,51.13
2022-08-22T19:32:49.880Z,51.19
2022-08-22T19:35:20.485Z,50.54
2022-08-22T19:37:53.552Z,50.55
2022-08-22T19:41:03.848Z,50.59
2022-08-22T19:43:36.762Z,50.44
2022-08-22T19:46:06.675Z,50.56
2022-08-22T19:48:43.447Z,50.25
2022-08-22T19:51:13.782Z,50.42
2022-08-22T19:53:48.527Z,50.46
2022-08-22T19:56:23.884Z,50.41
2022-08-22T19:58:57.219Z,50.11
2022-08-22T20:01:35.325Z,50.44
2022-08-22T20:04:05.623Z,50.07
2022-08-22T20:06:44.453Z,50.40
2022-08-22T20:09:20.431Z,50.21
2022-08-22T20:11:50.027Z,50.42
2022-08-22T20:14:20.047Z,50.22
2022-08-22T20:17:04.027Z,50.40
2022-08-22T20:20:16.378Z,50.29
2022-08-22T20:22:36.534Z,50.22
2022-08-22T20:25:16.991Z,50.25
2022-08-22T20:28:03.096Z,50.06
2022-08-22T20:30:32.054Z,50.19
2022-08-22T20:33:01.894Z,50.33
2022-08-22T20:35:35.402Z,50.17
2022-08-22T20:38:07.074Z,50.28
2022-08-22T20:40:56.390Z,50.07
2022-08-22T20:43:28.387Z,50.16
2022-08-22T20:46:01.128Z,50.22
2022-08-22T20:48:33.247Z,50.11
2022-08-22T20:51:03.900Z,49.91
2022-08-22T20:53:31.378Z,50.13
2022-08-22T20:56:00.124Z,50.17
2022-08-22T20:58:29.571Z,49.94
2022-08-22T21:01:00.063Z,50.08
2022-08-22T21:03:33.836Z,49.85
2022-08-22T21:06:09.792Z,50.08
2022-08-22T21:08:37.215Z,50.01
2022-08-22T21:11:24.353Z,50.11
2022-08-22T21:13:51.835Z,50.00
2022-08-22T21:16:20.396Z,50.07
2022-08-22T21:18:49.434Z,50.06
2022-08-22T21:21:20.004Z,50.18
2022-08-22T21:23:48.439Z,50.24
2022-08-22T21:26:22.755Z,50.20
2022-08-22T21:28:56.206Z,50.18
2022-08-22T21:31:25.630Z,50.07
2022-08-22T21:33:53.717Z,50.06
2022-08-22T21:36:22.534Z,49.98
2022-08-22T21:38:51.396Z,50.27
2022-08-22T21:41:26.728Z,50.35
2022-08-22T21:43:54.280Z,50.24
2022-08-22T21:46:26.042Z,50.22
2022-08-22T21:49:01.923Z,50.28
2022-08-22T21:51:32.652Z,50.39
2022-08-22T21:54:42.924Z,50.37
2022-08-22T21:57:35.509Z,50.47
2022-08-22T22:00:05.078Z,50.50
2022-08-22T22:02:40.563Z,50.51
2022-08-22T22:05:11.716Z,50.22
2022-08-22T22:07:39.520Z,50.45
2022-08-22T22:10:08.357Z,50.53
2022-08-22T22:12:39.313Z,50.54
2022-08-22T22:15:07.554Z,50.63
2022-08-22T22:17:34.983Z,50.81
2022-08-22T22:20:02.565Z,50.42
2022-08-22T22:22:30.007Z,50.43
2022-08-22T22:24:57.472Z,50.41
2022-08-22T22:27:25.089Z,50.42
2022-08-22T22:29:53.846Z,50.50
2022-08-22T22:32:21.271Z,50.39
2022-08-22T22:34:48.704Z,50.53
2022-08-22T22:37:16.141Z,50.54
2022-08-22T22:39:43.661Z,50.47
2022-08-22T22:42:11.186Z,50.49
2022-08-22T22:44:38.616Z,50.66
2022-08-22T22:47:07.461Z,50.69
2022-08-22T22:49:34.890Z,50.69
2022-08-22T22:52:02.342Z,50.59
2022-08-22T22:54:30.716Z,50.78
2022-08-22T22:57:01.946Z,51.10
2022-08-22T22:59:29.367Z,50.95
2022-08-22T23:02:01.306Z,50.87
2022-08-22T23:04:30.285Z,50.85
2022-08-22T23:06:57.761Z,50.93
2022-08-22T23:09:37.944Z,50.96
2022-08-22T23:12:06.714Z,50.92
2022-08-22T23:14:34.174Z,51.06
2022-08-22T23:17:01.605Z,51.11
2022-08-22T23:19:30.380Z,51.24
2022-08-22T23:21:58.521Z,51.39
2022-08-22T23:24:26.055Z,51.32
2022-08-22T23:26:53.504Z,51.44
2022-08-22T23:29:20.931Z,51.41
2022-08-22T23:31:50.497Z,51.44
2022-08-22T23:34:19.143Z,51.58
2022-08-22T23:36:47.994Z,51.70
2022-08-22T23:39:15.739Z,51.50
2022-08-22T23:41:43.269Z,51.75
2022-08-22T23:44:13.728Z,51.92
2022-08-22T23:46:41.425Z,51.68
2022-08-22T23:49:08.855Z,51.79
2022-08-22T23:51:36.408Z,51.96
2022-08-22T23:54:05.433Z,51.99
2022-08-22T23:56:33.850Z,52.06
2022-08-22T23:59:01.802Z,52.10
